Time;durP1;ratioP1;P1;durP2;ratioP2;P2;SDS_P1;SDS_P2;PMS_P1;PMS_P2;Temp;Humidity;BMP_temperature;BMP_pressure;BME280_temperature;BME280_humidity;BME280_pressure;Samples;Min_cycle;Max_cycle;Signal;HPM_P1;HPM_P2
2021/12/12 00:01:19;;;;;;;0.98;0.28;;;;;;;13.01;100.00;99539.06;6305961;22;20049;-57
2021/12/12 00:04:32;;;;;;;0.20;0.20;;;;;;;13.07;100.00;99537.09;6305464;22;20025;-58
2021/12/12 00:07:35;;;;;;;1.27;0.55;;;;;;;13.18;100.00;99539.94;6305705;22;20111;-57
2021/12/12 00:10:40;;;;;;;1.80;1.10;;;;;;;13.22;100.00;99543.25;6305294;22;20022;-57
2021/12/12 00:13:52;;;;;;;1.27;0.50;;;;;;;13.28;100.00;99530.06;6305737;22;20084;-57
2021/12/12 00:16:56;;;;;;;1.25;0.30;;;;;;;13.30;100.00;99532.34;6305238;22;20093;-58
2021/12/12 00:19:59;;;;;;;0.30;0.30;;;;;;;13.29;100.00;99536.44;6306114;22;20453;-58
2021/12/12 00:23:04;;;;;;;0.57;0.20;;;;;;;13.28;100.00;99541.25;6305602;22;20026;-57
2021/12/12 00:26:08;;;;;;;0.10;0.10;;;;;;;13.32;100.00;99530.59;6306034;22;20521;-57
2021/12/12 00:29:14;;;;;;;0.20;0.10;;;;;;;13.35;100.00;99540.00;6306411;22;20462;-57
2021/12/12 00:32:18;;;;;;;2.35;0.60;;;;;;;13.30;100.00;99537.94;6306225;22;20097;-57
2021/12/12 00:35:22;;;;;;;3.72;0.43;;;;;;;13.22;100.00;99529.28;6305900;22;20026;-58
2021/12/12 00:38:29;;;;;;;0.10;0.00;;;;;;;13.20;100.00;99529.03;6305865;22;20057;-58
2021/12/12 00:42:15;;;;;;;3.63;0.32;;;;;;;13.13;100.00;99540.66;6305587;22;20025;-58
2021/12/12 00:48:27;;;;;;;1.13;0.20;;;;;;;13.16;100.00;99545.28;6274734;22;20576;-51
2021/12/12 00:51:36;;;;;;;0.25;0.17;;;;;;;13.21;100.00;99547.31;6274383;22;20069;-51
2021/12/12 00:54:40;;;;;;;0.10;0.10;;;;;;;13.31;100.00;99550.69;6273761;22;20023;-51
2021/12/12 00:57:50;;;;;;;0.10;0.00;;;;;;;13.39;100.00;99546.13;6274181;22;20030;-51
2021/12/12 01:01:03;;;;;;;0.68;0.40;;;;;;;13.35;100.00;99545.59;6274277;22;20076;-51
2021/12/12 01:04:12;;;;;;;0.10;0.00;;;;;;;13.06;100.00;99552.31;6274343;22;20026;-51
2021/12/12 01:07:19;;;;;;;1.13;0.10;;;;;;;12.95;100.00;99541.03;6274175;22;20027;-51
2021/12/12 01:10:25;;;;;;;0.10;0.10;;;;;;;13.02;100.00;99551.75;6273942;22;20066;-51
2021/12/12 01:13:30;;;;;;;0.43;0.10;;;;;;;13.09;100.00;99548.53;6274216;22;20073;-51
2021/12/12 01:16:38;;;;;;;0.10;0.10;;;;;;;13.25;100.00;99549.88;6273698;22;20105;-51
2021/12/12 01:19:49;;;;;;;0.00;0.00;;;;;;;13.28;100.00;99543.28;6273945;22;20058;-51
2021/12/12 01:22:54;;;;;;;;;;;;;;;13.27;100.00;99536.94;6274275;22;20101;-51
2021/12/12 01:25:58;;;;;;;0.22;0.10;;;;;;;13.25;100.00;99547.09;6274334;22;19919;-51
2021/12/12 01:29:04;;;;;;;0.20;0.20;;;;;;;13.20;100.00;99551.38;6274122;22;20065;-51
2021/12/12 01:32:16;;;;;;;0.20;0.10;;;;;;;13.20;100.00;99556.97;6274122;22;20023;-51
2021/12/12 01:35:21;;;;;;;0.20;0.10;;;;;;;13.36;100.00;99561.88;6274511;22;20034;-51
2021/12/12 01:42:01;;;;;;;0.00;0.00;;;;;;;13.46;100.00;99568.81;6274120;22;20077;-51
2021/12/12 01:45:10;;;;;;;0.20;0.20;;;;;;;13.44;100.00;99573.38;6275746;22;20022;-51
2021/12/12 01:48:19;;;;;;;0.52;0.52;;;;;;;13.40;100.00;99576.41;6275982;22;20022;-51
2021/12/12 01:51:24;;;;;;;0.95;0.10;;;;;;;13.44;100.00;99576.94;6276546;22;20511;-51
2021/12/12 01:54:43;;;;;;;0.75;0.43;;;;;;;13.50;100.00;99572.13;6276484;22;20027;-51
2021/12/12 01:57:46;;;;;;;0.10;0.00;;;;;;;13.45;100.00;99572.09;6275826;22;20077;-51
2021/12/12 02:00:57;;;;;;;0.20;0.20;;;;;;;13.42;100.00;99573.88;6275530;22;20047;-51
2021/12/12 02:04:07;;;;;;;0.22;0.10;;;;;;;13.32;100.00;99580.94;6276617;22;20069;-51
2021/12/12 02:07:14;;;;;;;0.08;0.00;;;;;;;13.34;100.00;99595.19;6276152;22;20058;-51
2021/12/12 02:10:23;;;;;;;0.20;0.20;;;;;;;13.36;100.00;99598.25;6276082;22;20390;-51
2021/12/12 02:13:29;;;;;;;1.10;0.65;;;;;;;13.40;100.00;99592.44;6275998;22;20023;-51
2021/12/12 02:16:32;;;;;;;0.10;0.00;;;;;;;13.45;100.00;99597.25;6275677;22;20030;-51
2021/12/12 02:23:23;;;;;;;0.10;0.10;;;;;;;13.52;100.00;99591.97;6275907;22;20022;-52
2021/12/12 02:36:33;;;;;;;0.00;0.00;;;;;;;13.22;100.00;99607.56;6275615;22;20042;-52
2021/12/12 02:39:38;;;;;;;0.20;0.20;;;;;;;13.23;100.00;99606.31;6275099;22;20027;-52
2021/12/12 02:42:42;;;;;;;0.43;0.28;;;;;;;13.20;100.00;99607.31;6275594;22;20053;-52
2021/12/12 02:45:46;;;;;;;0.10;0.10;;;;;;;13.22;100.00;99607.56;6282658;22;20505;-84
2021/12/12 02:48:52;;;;;;;0.52;0.43;;;;;;;13.34;100.00;99617.56;6305498;22;20031;-83
2021/12/12 02:51:55;;;;;;;0.10;0.10;;;;;;;13.31;100.00;99612.19;6304557;22;20033;-83
2021/12/12 02:55:03;;;;;;;0.55;0.20;;;;;;;13.32;100.00;99620.09;6304391;22;20021;-84
2021/12/12 02:58:09;;;;;;;0.20;0.20;;;;;;;13.28;100.00;99613.19;6304270;22;20477;-83
2021/12/12 03:01:22;;;;;;;0.10;0.10;;;;;;;13.26;100.00;99610.91;6305376;22;20022;-83
2021/12/12 03:04:26;;;;;;;0.10;0.10;;;;;;;13.23;100.00;99627.94;6303785;22;20522;-83
2021/12/12 03:07:29;;;;;;;0.95;0.10;;;;;;;13.36;100.00;99622.66;6304286;22;20125;-83
2021/12/12 03:10:35;;;;;;;0.10;0.00;;;;;;;13.34;100.00;99628.75;6304351;22;20053;-83
2021/12/12 03:13:40;;;;;;;0.10;0.00;;;;;;;13.36;100.00;99626.22;6304535;22;20026;-84
2021/12/12 03:16:44;;;;;;;0.13;0.05;;;;;;;13.52;100.00;99631.13;6304069;22;20026;-84
2021/12/12 03:19:51;;;;;;;0.15;0.05;;;;;;;13.55;100.00;99627.34;6305312;22;20080;-83
2021/12/12 03:22:59;;;;;;;0.45;0.38;;;;;;;13.65;100.00;99620.25;6304035;22;20026;-83
2021/12/12 03:26:08;;;;;;;0.35;0.28;;;;;;;13.69;100.00;99625.59;6304952;22;20030;-83
2021/12/12 03:29:12;;;;;;;0.10;0.05;;;;;;;13.65;100.00;99623.06;6303634;22;20055;-82
2021/12/12 03:32:19;;;;;;;0.10;0.00;;;;;;;13.60;100.00;99617.44;6304603;22;20037;-83
2021/12/12 03:35:22;;;;;;;0.60;0.17;;;;;;;13.55;100.00;99621.75;6304709;22;20076;-83
2021/12/12 03:38:27;;;;;;;0.15;0.15;;;;;;;13.49;100.00;99620.19;6303724;22;20026;-83
2021/12/12 03:41:33;;;;;;;0.10;0.10;;;;;;;13.46;100.00;99619.16;6304811;22;20081;-83
2021/12/12 03:44:38;;;;;;;0.00;0.00;;;;;;;13.60;100.00;99623.03;6303344;22;20025;-83
2021/12/12 04:50:36;;;;;;;0.00;0.00;;;;;;;13.43;100.00;99648.13;6336732;22;20444;-59
2021/12/12 04:53:54;;;;;;;0.40;0.30;;;;;;;13.38;100.00;99651.66;6335956;22;20071;-59
2021/12/12 04:57:09;;;;;;;0.10;0.00;;;;;;;12.79;100.00;99653.50;6317322;22;20087;-59
2021/12/12 05:00:20;;;;;;;0.10;0.10;;;;;;;12.80;100.00;99666.19;6316811;22;20072;-59
2021/12/12 05:03:49;;;;;;;0.10;0.00;;;;;;;12.83;100.00;99673.59;6336392;22;20075;-59
2021/12/12 05:07:01;;;;;;;0.10;0.10;;;;;;;12.84;100.00;99672.34;6316657;22;20505;-59
2021/12/12 05:10:04;;;;;;;0.55;0.35;;;;;;;12.90;100.00;99668.34;6336083;22;20075;-59
2021/12/12 05:13:17;;;;;;;0.10;0.00;;;;;;;13.07;100.00;99670.50;6335773;22;20026;-59
2021/12/12 05:16:33;;;;;;;0.10;0.10;;;;;;;13.16;100.00;99679.50;6335634;22;20026;-60
2021/12/12 05:19:38;;;;;;;0.10;0.10;;;;;;;13.20;100.00;99676.44;6337507;22;20342;-60
2021/12/12 05:22:45;;;;;;;0.00;0.00;;;;;;;13.22;100.00;99687.91;6337617;22;20049;-60
2021/12/12 05:25:55;;;;;;;0.03;0.00;;;;;;;13.24;100.00;99683.34;6337812;22;20080;-60
2021/12/12 05:29:09;;;;;;;0.10;0.00;;;;;;;13.21;100.00;99692.72;6337702;22;20103;-61
2021/12/12 05:32:14;;;;;;;0.05;0.00;;;;;;;13.27;100.00;99689.97;6338226;22;20057;-60
2021/12/12 05:35:22;;;;;;;0.10;0.10;;;;;;;13.27;100.00;99687.97;6337697;22;20025;-60
2021/12/12 05:38:27;;;;;;;1.38;0.55;;;;;;;13.28;100.00;99678.28;6338114;22;20060;-59
2021/12/12 05:41:30;;;;;;;0.10;0.10;;;;;;;13.24;100.00;99697.34;6337994;22;20075;-59
2021/12/12 05:44:35;;;;;;;0.17;0.17;;;;;;;13.23;100.00;99690.19;6337216;22;20025;-59
2021/12/12 06:46:53;;;;;;;0.22;0.20;;;;;;;13.78;100.00;99722.59;6350772;22;20034;-59
2021/12/12 06:49:59;;;;;;;0.20;0.20;;;;;;;13.81;100.00;99721.59;6368893;22;20041;-59
2021/12/12 06:53:02;;;;;;;0.10;0.10;;;;;;;13.83;100.00;99728.22;6368875;22;20090;-59
2021/12/12 06:56:08;;;;;;;0.00;0.00;;;;;;;13.79;100.00;99735.31;6349581;22;20111;-61
2021/12/12 06:59:11;;;;;;;0.35;0.25;;;;;;;13.74;100.00;99731.22;6368810;22;20077;-59
2021/12/12 07:02:15;;;;;;;0.25;0.00;;;;;;;13.67;100.00;99729.66;6368790;22;20098;-59
2021/12/12 07:05:24;;;;;;;0.10;0.10;;;;;;;13.72;100.00;99738.59;6368582;22;20075;-59
2021/12/12 07:08:28;;;;;;;0.10;0.00;;;;;;;13.69;100.00;99740.34;6368392;22;20025;-59
2021/12/12 07:11:32;;;;;;;0.22;0.22;;;;;;;13.59;100.00;99742.59;6368507;22;20025;-59
2021/12/12 07:14:38;;;;;;;1.35;0.20;;;;;;;13.60;100.00;99746.91;6368344;22;20075;-59
2021/12/12 07:17:41;;;;;;;0.10;0.10;;;;;;;13.64;100.00;99750.25;6367787;22;20037;-59
2021/12/12 07:20:47;;;;;;;0.00;0.00;;;;;;;13.67;100.00;99757.66;6368495;22;20024;-59
2021/12/12 07:23:51;;;;;;;2.42;0.30;;;;;;;13.60;100.00;99763.69;6367783;22;20115;-59
2021/12/12 07:26:54;;;;;;;0.05;0.05;;;;;;;13.59;100.00;99767.78;6368452;22;20029;-59
2021/12/12 07:29:58;;;;;;;0.20;0.10;;;;;;;13.58;100.00;99769.03;6368650;22;20114;-59
2021/12/12 07:33:04;;;;;;;0.10;0.10;;;;;;;13.57;100.00;99770.31;6368930;22;20071;-59
2021/12/12 07:36:09;;;;;;;0.00;0.00;;;;;;;13.51;100.00;99772.28;6368731;22;20024;-59
2021/12/12 07:39:15;;;;;;;0.10;0.10;;;;;;;13.46;100.00;99775.81;6368917;22;20021;-60
2021/12/12 07:42:18;;;;;;;0.10;0.05;;;;;;;13.55;100.00;99774.88;6368908;22;20025;-59
2021/12/12 07:45:23;;;;;;;0.10;0.00;;;;;;;13.59;100.00;99778.97;6368719;22;20067;-61
2021/12/12 07:48:27;;;;;;;0.05;0.00;;;;;;;13.53;100.00;99780.97;6367915;22;20086;-59
2021/12/12 07:51:30;;;;;;;0.10;0.10;;;;;;;13.54;100.00;99785.28;6367911;22;20092;-59
2021/12/12 07:54:35;;;;;;;1.02;0.10;;;;;;;13.54;100.00;99790.88;6368006;22;20382;-56
2021/12/12 07:57:38;;;;;;;0.10;0.00;;;;;;;13.56;100.00;99791.16;6368212;22;20021;-56
2021/12/12 08:00:45;;;;;;;0.43;0.20;;;;;;;13.60;100.00;99791.69;6349548;22;20025;-56
2021/12/12 08:15:52;;;;;;;0.05;0.00;;;;;;;13.82;100.00;99815.50;6364321;22;20077;-53
2021/12/12 08:18:59;;;;;;;0.10;0.08;;;;;;;13.85;100.00;99812.47;6368393;22;20781;-53
2021/12/12 08:22:07;;;;;;;0.47;0.08;;;;;;;13.90;100.00;99813.78;6368399;22;20022;-53
2021/12/12 08:25:12;;;;;;;0.05;0.00;;;;;;;13.94;100.00;99817.88;6368303;22;20075;-53
2021/12/12 08:28:18;;;;;;;0.40;0.20;;;;;;;13.93;100.00;99815.56;6367442;22;20017;-53
2021/12/12 08:31:20;;;;;;;0.30;0.30;;;;;;;14.00;100.00;99817.91;6348986;22;20041;-53
2021/12/12 08:34:26;;;;;;;5.28;0.40;;;;;;;13.98;100.00;99835.22;6367554;22;20103;-53
2021/12/12 08:37:31;;;;;;;0.10;0.10;;;;;;;13.99;100.00;99836.72;6367535;22;20086;-53
2021/12/12 08:40:38;;;;;;;0.38;0.20;;;;;;;14.02;100.00;99832.16;6367672;22;20025;-53
2021/12/12 08:43:43;;;;;;;0.57;0.35;;;;;;;14.07;100.00;99851.06;6367619;22;20024;-53
2021/12/12 08:46:50;;;;;;;0.57;0.20;;;;;;;14.07;100.00;99842.66;6367561;22;20075;-53
2021/12/12 08:49:54;;;;;;;0.30;0.10;;;;;;;13.95;100.00;99843.81;6367728;22;20364;-53
2021/12/12 08:52:58;;;;;;;0.15;0.15;;;;;;;13.94;100.00;99861.91;6367803;22;20024;-52
2021/12/12 08:56:03;;;;;;;0.73;0.43;;;;;;;13.97;100.00;99858.13;6368239;22;20041;-53
2021/12/12 08:59:06;;;;;;;6.13;1.10;;;;;;;13.98;100.00;99859.63;6367563;22;20388;-53
2021/12/12 09:02:12;;;;;;;2.38;0.40;;;;;;;14.06;100.00;99860.69;6367864;22;20025;-53
2021/12/12 09:05:18;;;;;;;2.65;0.30;;;;;;;14.05;100.00;99864.78;6367605;22;20067;-53
2021/12/12 09:08:46;;;;;;;0.75;0.30;;;;;;;14.06;100.00;99869.09;6367943;22;20558;-53
2021/12/12 09:12:00;;;;;;;1.65;0.35;;;;;;;13.96;100.00;99874.16;6367148;22;20076;-53
2021/12/12 09:15:15;;;;;;;2.35;0.73;;;;;;;13.96;100.00;99884.56;6367935;22;20033;-53
2021/12/12 09:18:34;;;;;;;1.88;0.32;;;;;;;13.98;100.00;99891.22;6367911;22;20040;-54
2021/12/12 09:22:07;;;;;;;0.10;0.10;;;;;;;14.10;100.00;99887.22;6367551;22;20335;-54
2021/12/12 09:25:11;;;;;;;0.30;0.30;;;;;;;14.11;100.00;99896.38;6367880;22;20021;-54
2021/12/12 09:28:32;;;;;;;0.10;0.00;;;;;;;14.22;100.00;99894.44;6367925;22;20395;-54
2021/12/12 09:31:49;;;;;;;1.45;0.55;;;;;;;14.29;100.00;99901.63;6366888;22;20158;-53
2021/12/12 09:35:01;;;;;;;1.00;0.30;;;;;;;14.33;100.00;99902.16;6367394;22;20037;-54
2021/12/12 09:38:37;;;;;;;0.10;0.10;;;;;;;14.45;100.00;99900.97;6367964;22;20051;-54
2021/12/12 09:41:58;;;;;;;0.10;0.10;;;;;;;14.45;100.00;99903.75;6366868;22;20067;-53
